Time;durP1;ratioP1;P1;durP2;ratioP2;P2;SDS_P1;SDS_P2;PMS_P1;PMS_P2;Temp;Humidity;BMP_temperature;BMP_pressure;BME280_temperature;BME280_humidity;BME280_pressure;Samples;Min_cycle;Max_cycle;Signal;HPM_P1;HPM_P2
2021/01/24 16:07:49;;;;;;;0.50;0.35;;;5.50;99.90;;;;;;5106623;27;20345;-51
2021/01/24 16:10:17;;;;;;;0.60;0.40;;;5.40;99.90;;;;;;5098222;28;20050;-51
2021/01/24 16:12:43;;;;;;;0.30;0.30;;;5.30;99.90;;;;;;5105195;28;20039;-50
2021/01/24 16:15:11;;;;;;;1.25;0.40;;;5.30;99.90;;;;;;5102609;28;20155;-51
2021/01/24 16:17:37;;;;;;;0.73;0.40;;;5.20;99.90;;;;;;5103606;28;20047;-51
2021/01/24 16:20:05;;;;;;;1.75;0.40;;;5.20;99.90;;;;;;5104209;28;20159;-52
2021/01/24 16:22:31;;;;;;;0.60;0.38;;;5.20;99.90;;;;;;5104480;28;20055;-50
2021/01/24 16:24:58;;;;;;;0.30;0.20;;;5.10;99.90;;;;;;5103741;28;20048;-51
2021/01/24 16:27:25;;;;;;;0.50;0.20;;;5.10;99.90;;;;;;5098502;28;20051;-51
2021/01/24 16:29:52;;;;;;;1.30;0.30;;;5.10;99.90;;;;;;5094628;28;20043;-52
2021/01/24 16:32:18;;;;;;;0.93;0.30;;;5.00;99.90;;;;;;5095680;28;20044;-50
2021/01/24 16:34:45;;;;;;;0.45;0.20;;;5.00;99.90;;;;;;5103092;28;20446;-50
2021/01/24 16:37:11;;;;;;;0.70;0.20;;;4.90;99.90;;;;;;5099761;28;20052;-50
2021/01/24 16:39:38;;;;;;;0.60;0.30;;;4.90;99.90;;;;;;5113025;28;20044;-50
2021/01/24 16:42:05;;;;;;;0.60;0.50;;;4.90;99.90;;;;;;5097172;28;20047;-51
2021/01/24 16:44:32;;;;;;;1.42;0.70;;;4.80;99.90;;;;;;5090952;28;20469;-49
2021/01/24 16:46:59;;;;;;;0.95;0.50;;;4.70;99.90;;;;;;5093059;28;20052;-50
2021/01/24 16:49:26;;;;;;;1.48;1.00;;;4.70;99.90;;;;;;5087671;28;22098;-50
2021/01/24 16:51:53;;;;;;;14.05;5.60;;;4.60;99.90;;;;;;5093473;28;20047;-50
2021/01/24 16:54:19;;;;;;;123.63;60.90;;;4.60;99.90;;;;;;5092381;28;20048;-50
2021/01/24 16:56:46;;;;;;;105.68;45.42;;;4.50;99.90;;;;;;5095061;28;20070;-51
2021/01/24 16:59:12;;;;;;;81.05;38.28;;;4.50;99.90;;;;;;5099788;28;20055;-52
2021/01/24 17:01:40;;;;;;;79.15;34.60;;;4.40;99.90;;;;;;5106595;28;20070;-50
2021/01/24 17:04:07;;;;;;;60.40;26.38;;;4.30;99.90;;;;;;5097211;28;20056;-51
2021/01/24 17:06:34;;;;;;;7.13;3.03;;;4.30;99.90;;;;;;5094428;28;20044;-51
2021/01/24 17:09:01;;;;;;;3.53;1.45;;;4.30;99.90;;;;;;5099992;28;20039;-50
2021/01/24 17:11:27;;;;;;;8.02;2.53;;;4.20;99.90;;;;;;5096310;28;20048;-50
2021/01/24 17:13:54;;;;;;;19.55;11.13;;;4.10;99.90;;;;;;5100035;28;20044;-49
2021/01/24 17:16:20;;;;;;;5.18;2.00;;;4.00;99.90;;;;;;5090522;28;20130;-50
2021/01/24 17:18:47;;;;;;;5.85;0.80;;;4.00;99.90;;;;;;5085606;28;20135;-50
2021/01/24 17:21:14;;;;;;;2.35;0.90;;;4.00;99.90;;;;;;5079261;28;20047;-50
2021/01/24 17:23:40;;;;;;;5.43;2.53;;;3.90;99.90;;;;;;5083985;28;20404;-50
2021/01/24 17:26:07;;;;;;;3.78;1.27;;;3.80;99.90;;;;;;5084789;28;20048;-50
2021/01/24 17:28:33;;;;;;;18.90;7.40;;;3.80;99.90;;;;;;5082700;28;20044;-50
2021/01/24 17:30:59;;;;;;;13.60;5.47;;;3.80;99.90;;;;;;5079227;28;20047;-50
2021/01/24 17:33:26;;;;;;;18.98;7.82;;;3.80;99.90;;;;;;5074205;28;20059;-50
2021/01/24 17:35:52;;;;;;;1.90;0.73;;;3.70;99.90;;;;;;5085024;28;20408;-50
2021/01/24 17:38:19;;;;;;;4.28;1.90;;;3.70;99.90;;;;;;5081104;28;20044;-50
2021/01/24 17:40:46;;;;;;;3.17;1.23;;;3.60;99.90;;;;;;5082175;28;20048;-52
2021/01/24 17:43:12;;;;;;;9.00;5.03;;;3.70;99.90;;;;;;5080344;28;20056;-51
2021/01/24 17:45:40;;;;;;;7.32;3.28;;;3.60;99.90;;;;;;5086576;28;20049;-50
2021/01/24 17:48:08;;;;;;;4.65;2.03;;;3.50;99.90;;;;;;5082687;28;20482;-50
2021/01/24 17:50:35;;;;;;;6.68;4.03;;;3.40;99.90;;;;;;5080985;28;20063;-50
2021/01/24 17:53:02;;;;;;;7.18;3.20;;;3.30;99.90;;;;;;5083739;28;20059;-50
2021/01/24 17:55:29;;;;;;;5.43;1.95;;;3.30;99.90;;;;;;5088589;28;20044;-50
2021/01/24 17:57:56;;;;;;;6.18;2.03;;;3.30;99.90;;;;;;5089174;28;20047;-50
2021/01/24 18:00:23;;;;;;;1.95;1.20;;;3.30;99.90;;;;;;5084238;28;20051;-50
2021/01/24 18:02:51;;;;;;;3.53;1.30;;;3.40;99.90;;;;;;5084798;28;20050;-53
2021/01/24 18:05:28;;;;;;;3.33;1.70;;;3.30;99.90;;;;;;5082347;28;20047;-52
2021/01/24 18:07:54;;;;;;;1.58;0.93;;;3.30;99.90;;;;;;5086989;28;20044;-54
2021/01/24 18:10:24;;;;;;;1.15;1.00;;;3.20;99.90;;;;;;5085536;28;20043;-54
2021/01/24 18:12:51;;;;;;;3.58;1.00;;;3.20;99.90;;;;;;5078899;28;20044;-52
2021/01/24 18:15:18;;;;;;;2.20;0.85;;;3.20;99.90;;;;;;5091865;28;20048;-52
2021/01/24 18:17:44;;;;;;;4.43;1.08;;;3.10;99.90;;;;;;5078298;28;20066;-52
2021/01/24 18:20:12;;;;;;;2.75;2.08;;;3.00;99.90;;;;;;5105049;28;20070;-52
2021/01/24 18:22:38;;;;;;;1.08;0.80;;;3.00;99.90;;;;;;5077832;28;20060;-52
2021/01/24 18:25:06;;;;;;;3.17;0.90;;;2.90;99.90;;;;;;5084099;28;20093;-49
2021/01/24 18:27:34;;;;;;;0.80;0.63;;;2.90;99.90;;;;;;5086962;28;20369;-50
2021/01/24 18:30:01;;;;;;;1.00;0.70;;;2.90;99.90;;;;;;5073431;28;20044;-50
2021/01/24 18:32:28;;;;;;;31.95;16.45;;;2.90;99.90;;;;;;5077721;28;20040;-50
2021/01/24 18:34:55;;;;;;;6.18;2.47;;;3.00;99.90;;;;;;5084678;28;20068;-50
2021/01/24 18:37:22;;;;;;;17.02;8.50;;;3.10;99.90;;;;;;5080481;28;20056;-50
2021/01/24 18:39:48;;;;;;;17.98;8.82;;;3.10;99.90;;;;;;5076284;28;20416;-51
2021/01/24 18:42:15;;;;;;;5.50;2.70;;;3.10;99.90;;;;;;5084252;28;20491;-50
2021/01/24 18:44:41;;;;;;;1.63;1.20;;;3.10;99.90;;;;;;5084670;28;20063;-50
2021/01/24 18:47:08;;;;;;;2.65;0.95;;;3.20;99.90;;;;;;5090115;28;20055;-50
2021/01/24 18:49:35;;;;;;;9.70;4.90;;;3.10;99.90;;;;;;5080051;28;20037;-50
2021/01/24 18:52:01;;;;;;;12.27;7.03;;;3.00;99.90;;;;;;5079153;28;20049;-51
2021/01/24 18:54:27;;;;;;;1.98;1.30;;;2.90;99.90;;;;;;5089950;28;20044;-50
2021/01/24 18:56:54;;;;;;;7.03;3.40;;;2.80;99.90;;;;;;5080881;28;20383;-50
2021/01/24 18:59:20;;;;;;;39.50;17.45;;;2.90;99.90;;;;;;5089947;28;20052;-50
2021/01/24 19:01:47;;;;;;;3.10;1.10;;;2.90;99.90;;;;;;5083532;28;20446;-50
2021/01/24 19:04:14;;;;;;;8.43;3.95;;;3.00;99.90;;;;;;5080399;28;20056;-51
2021/01/24 19:06:42;;;;;;;14.38;6.72;;;2.90;99.90;;;;;;5080063;28;20056;-50
2021/01/24 19:09:09;;;;;;;16.52;8.63;;;2.70;99.90;;;;;;5075067;28;20051;-51
2021/01/24 19:11:35;;;;;;;13.57;6.32;;;2.50;99.90;;;;;;5089041;28;20055;-49
2021/01/24 19:14:02;;;;;;;2.20;1.83;;;2.40;99.90;;;;;;5084673;28;20044;-50
2021/01/24 19:16:28;;;;;;;4.45;2.65;;;2.30;99.90;;;;;;5084532;28;20041;-50
2021/01/24 19:18:55;;;;;;;0.93;0.63;;;2.20;99.90;;;;;;5084756;28;20469;-50
2021/01/24 19:21:22;;;;;;;0.40;0.30;;;2.30;99.90;;;;;;5101881;28;20376;-51
2021/01/24 19:23:48;;;;;;;0.90;0.60;;;2.30;99.90;;;;;;5080891;28;20064;-54
2021/01/24 19:26:16;;;;;;;1.58;1.20;;;2.50;99.90;;;;;;5075008;28;20503;-50
2021/01/24 19:28:43;;;;;;;1.30;0.40;;;2.40;99.90;;;;;;5084653;28;20040;-50
2021/01/24 19:31:09;;;;;;;0.50;0.40;;;2.60;99.90;;;;;;5078479;28;20040;-52
2021/01/24 19:33:36;;;;;;;0.50;0.30;;;2.60;99.90;;;;;;5066692;28;20385;-50
2021/01/24 19:36:04;;;;;;;1.10;0.30;;;2.60;99.90;;;;;;5079834;28;20525;-50
2021/01/24 19:38:32;;;;;;;0.60;0.50;;;2.70;99.90;;;;;;5084217;28;20051;-50
2021/01/24 19:40:59;;;;;;;1.88;0.70;;;2.70;99.90;;;;;;5086394;28;20044;-51
2021/01/24 19:43:25;;;;;;;2.97;1.02;;;2.70;99.90;;;;;;5074140;28;20395;-50
2021/01/24 19:45:52;;;;;;;39.42;21.58;;;2.60;99.90;;;;;;5087075;28;20111;-49
2021/01/24 19:48:19;;;;;;;8.75;3.50;;;2.60;99.90;;;;;;5084598;28;20499;-51
2021/01/24 19:50:45;;;;;;;8.93;3.42;;;2.50;99.90;;;;;;5072679;28;20040;-50
2021/01/24 19:53:12;;;;;;;7.10;3.67;;;2.50;99.90;;;;;;5083532;28;20078;-51
2021/01/24 19:55:39;;;;;;;6.20;2.67;;;2.50;99.90;;;;;;5086125;28;20062;-50
2021/01/24 19:58:09;;;;;;;2.47;1.15;;;2.40;99.90;;;;;;5084773;28;20044;-50
2021/01/24 20:00:36;;;;;;;3.55;1.65;;;2.30;99.90;;;;;;5087127;28;20446;-50
2021/01/24 20:03:03;;;;;;;4.75;1.10;;;2.20;99.90;;;;;;5088646;28;20051;-50
2021/01/24 20:05:30;;;;;;;3.13;1.65;;;2.20;99.90;;;;;;5080152;28;20052;-49
2021/01/24 20:07:57;;;;;;;2.28;0.90;;;2.20;99.90;;;;;;5077693;28;20048;-51
2021/01/24 20:10:27;;;;;;;3.20;1.20;;;2.20;99.90;;;;;;5082168;28;20095;-50
2021/01/24 20:12:54;;;;;;;1.30;0.65;;;2.20;99.90;;;;;;5090533;28;20127;-50
2021/01/24 20:15:21;;;;;;;12.38;5.60;;;2.10;99.90;;;;;;5084218;28;20040;-51
2021/01/24 20:17:48;;;;;;;2.47;1.00;;;2.00;99.90;;;;;;5078633;28;20044;-50
2021/01/24 20:20:15;;;;;;;36.38;15.75;;;2.00;99.90;;;;;;5092264;28;20079;-50
2021/01/24 20:22:42;;;;;;;44.53;19.73;;;1.80;99.90;;;;;;5090966;28;20127;-50
2021/01/24 20:25:09;;;;;;;44.55;20.08;;;1.80;99.90;;;;;;5076837;28;20059;-50
2021/01/24 20:27:36;;;;;;;19.10;9.68;;;1.70;99.90;;;;;;5080539;28;20407;-50
2021/01/24 20:30:04;;;;;;;29.25;13.13;;;1.60;99.90;;;;;;5083682;28;20063;-50
2021/01/24 20:32:31;;;;;;;5.68;1.85;;;1.60;99.90;;;;;;5086134;28;20482;-49
2021/01/24 20:34:59;;;;;;;7.75;2.97;;;1.60;99.90;;;;;;5085403;28;20048;-50
2021/01/24 20:37:26;;;;;;;3.25;1.38;;;1.50;99.90;;;;;;5088777;28;20048;-50
2021/01/24 20:39:54;;;;;;;0.70;0.45;;;1.60;99.90;;;;;;5085753;28;20059;-50
2021/01/24 20:42:21;;;;;;;2.58;0.70;;;1.60;99.90;;;;;;5080239;28;20040;-50
2021/01/24 20:44:47;;;;;;;1.33;0.43;;;1.70;99.90;;;;;;5085333;28;20051;-50
2021/01/24 20:47:14;;;;;;;0.50;0.40;;;1.70;99.90;;;;;;5070193;28;20074;-50
2021/01/24 20:49:40;;;;;;;25.98;12.32;;;1.80;99.90;;;;;;5080840;28;20485;-51
2021/01/24 20:52:07;;;;;;;38.38;19.80;;;1.70;99.90;;;;;;5074078;28;20048;-49
2021/01/24 20:54:34;;;;;;;25.73;12.25;;;1.50;99.90;;;;;;5072053;28;20048;-50
2021/01/24 20:57:00;;;;;;;3.83;1.83;;;1.40;99.90;;;;;;5080771;28;20055;-50
2021/01/24 20:59:27;;;;;;;1.83;1.00;;;1.40;99.90;;;;;;5078073;28;20052;-50
2021/01/24 21:01:53;;;;;;;2.13;1.42;;;1.30;99.90;;;;;;5084241;28;20392;-49
2021/01/24 21:04:20;;;;;;;28.25;11.20;;;1.30;99.90;;;;;;5093117;28;20060;-49
2021/01/24 21:06:46;;;;;;;13.00;6.97;;;1.10;99.90;;;;;;5084557;28;20052;-50
2021/01/24 21:09:13;;;;;;;56.05;28.17;;;1.10;99.90;;;;;;5067553;28;20044;-50
2021/01/24 21:11:39;;;;;;;66.90;34.13;;;1.10;99.90;;;;;;5082743;28;20052;-50
2021/01/24 21:14:06;;;;;;;42.30;22.55;;;1.00;99.90;;;;;;5079375;28;20048;-50
2021/01/24 21:16:32;;;;;;;17.17;8.85;;;1.00;99.90;;;;;;5079209;28;20059;-49
2021/01/24 21:18:59;;;;;;;8.10;4.05;;;1.00;99.90;;;;;;5082185;28;20636;-50
2021/01/24 21:21:25;;;;;;;14.20;7.13;;;1.00;99.90;;;;;;5096655;28;20056;-51
2021/01/24 21:23:53;;;;;;;9.30;3.97;;;1.10;99.90;;;;;;5083131;28;20052;-50
2021/01/24 21:26:20;;;;;;;6.50;2.60;;;1.00;99.90;;;;;;5075956;28;20050;-49
2021/01/24 21:28:47;;;;;;;31.90;15.45;;;1.00;99.90;;;;;;5090020;28;20475;-50
2021/01/24 21:31:13;;;;;;;13.18;8.02;;;0.90;99.90;;;;;;5090605;28;20051;-50
2021/01/24 21:33:39;;;;;;;41.67;21.98;;;0.90;99.90;;;;;;5085441;28;20044;-50
2021/01/24 21:36:06;;;;;;;35.10;19.02;;;0.70;99.90;;;;;;5081455;28;20055;-50
2021/01/24 21:38:35;;;;;;;3.03;1.73;;;0.60;99.90;;;;;;5082922;28;20460;-49
2021/01/24 21:41:01;;;;;;;2.70;1.00;;;0.60;99.90;;;;;;5086547;28;20500;-49
2021/01/24 21:43:28;;;;;;;2.55;0.60;;;0.60;99.90;;;;;;5089442;28;20079;-51
2021/01/24 21:45:54;;;;;;;16.15;7.00;;;0.60;99.90;;;;;;5090072;28;20059;-50
2021/01/24 21:48:21;;;;;;;31.35;15.93;;;0.50;99.90;;;;;;5089092;28;20052;-49
2021/01/24 21:50:47;;;;;;;27.73;17.02;;;0.40;99.90;;;;;;5091752;28;20056;-50
2021/01/24 21:53:14;;;;;;;32.65;16.17;;;0.30;99.90;;;;;;5085964;28;20059;-50
2021/01/24 21:55:40;;;;;;;17.58;9.10;;;0.40;99.90;;;;;;5087791;28;20601;-53
2021/01/24 21:58:07;;;;;;;29.67;14.88;;;0.30;99.90;;;;;;5085925;28;20048;-50
2021/01/24 22:00:33;;;;;;;43.75;19.60;;;0.10;99.90;;;;;;5074708;28;20538;-49
2021/01/24 22:03:00;;;;;;;41.80;20.83;;;0.10;99.90;;;;;;5090320;28;20063;-50
2021/01/24 22:05:26;;;;;;;41.35;20.48;;;0.00;99.90;;;;;;5087789;28;20080;-49
2021/01/24 22:07:53;;;;;;;26.85;16.20;;;-0.30;99.90;;;;;;5078123;28;20048;-50
2021/01/24 22:10:19;;;;;;;11.20;5.97;;;-0.30;99.90;;;;;;5080092;28;20055;-50
2021/01/24 22:12:46;;;;;;;2.70;1.13;;;-0.30;99.90;;;;;;5081991;28;20052;-50
2021/01/24 22:15:12;;;;;;;1.23;0.70;;;-0.40;99.90;;;;;;5084465;28;20484;-49
2021/01/24 22:17:39;;;;;;;4.40;0.70;;;-0.50;99.90;;;;;;5090405;28;20052;-52
2021/01/24 22:20:06;;;;;;;12.35;2.75;;;-0.60;99.90;;;;;;5093639;28;20460;-50
2021/01/24 22:22:33;;;;;;;13.25;5.05;;;-0.60;99.90;;;;;;5091928;28;20062;-49
2021/01/24 22:25:00;;;;;;;2.70;1.27;;;-0.60;99.90;;;;;;5090497;28;20507;-49
2021/01/24 22:27:27;;;;;;;3.05;0.70;;;-0.60;99.90;;;;;;5085710;28;20055;-50
2021/01/24 22:29:53;;;;;;;0.90;0.60;;;-0.60;99.90;;;;;;5091296;28;20059;-49
2021/01/24 22:32:20;;;;;;;1.27;0.52;;;-0.50;99.90;;;;;;5084983;28;20044;-50
2021/01/24 22:34:46;;;;;;;1.20;0.60;;;-0.50;99.90;;;;;;5082180;28;20083;-51
2021/01/24 22:37:13;;;;;;;0.73;0.50;;;-0.40;99.90;;;;;;5083746;28;20048;-50
2021/01/24 22:39:39;;;;;;;3.28;1.58;;;-0.40;99.90;;;;;;5073883;28;20059;-50
2021/01/24 22:42:06;;;;;;;16.30;4.70;;;-0.40;99.90;;;;;;5082439;28;20066;-50
2021/01/24 22:44:32;;;;;;;19.98;6.70;;;-0.50;99.90;;;;;;5079847;28;20048;-50
2021/01/24 22:46:59;;;;;;;28.45;10.63;;;-0.60;99.90;;;;;;5076310;28;20049;-51
2021/01/24 22:49:25;;;;;;;28.08;13.45;;;-0.70;99.90;;;;;;5083606;28;20052;-49
2021/01/24 22:51:52;;;;;;;29.00;13.35;;;-0.70;99.90;;;;;;5073852;28;20049;-50
2021/01/24 22:54:20;;;;;;;27.55;12.45;;;-0.90;99.90;;;;;;5087586;28;20425;-50
2021/01/24 22:56:47;;;;;;;34.17;13.95;;;-0.80;99.90;;;;;;5086444;28;20088;-50
2021/01/24 22:59:13;;;;;;;17.90;8.57;;;-0.80;99.90;;;;;;5089371;28;20059;-50
2021/01/24 23:01:40;;;;;;;26.10;10.57;;;-0.80;99.90;;;;;;5084540;28;20055;-49
2021/01/24 23:04:07;;;;;;;14.45;6.55;;;-0.90;99.90;;;;;;5079961;28;20052;-50
2021/01/24 23:06:34;;;;;;;10.07;3.83;;;-0.90;99.90;;;;;;5080944;28;20083;-50
2021/01/24 23:09:01;;;;;;;6.57;2.75;;;-0.90;99.90;;;;;;5073081;28;20064;-53
2021/01/24 23:11:27;;;;;;;7.35;2.10;;;-0.90;99.90;;;;;;5085624;28;20055;-50
2021/01/24 23:13:54;;;;;;;4.63;1.42;;;-0.90;99.90;;;;;;5086798;28;20048;-50
2021/01/24 23:16:21;;;;;;;3.38;1.30;;;-1.00;99.90;;;;;;5087505;28;20050;-50
2021/01/24 23:18:47;;;;;;;8.32;2.85;;;-1.10;99.90;;;;;;5074335;28;20040;-49
2021/01/24 23:21:15;;;;;;;5.18;2.60;;;-1.00;99.90;;;;;;5090663;28;20066;-50
2021/01/24 23:23:43;;;;;;;6.50;3.45;;;-1.20;99.90;;;;;;5078890;28;20051;-50
2021/01/24 23:26:10;;;;;;;5.35;2.33;;;-1.30;99.90;;;;;;5076947;28;20048;-50
2021/01/24 23:28:36;;;;;;;5.68;2.20;;;-1.30;99.90;;;;;;5084870;28;20056;-51
2021/01/24 23:31:03;;;;;;;5.63;2.33;;;-1.20;99.90;;;;;;5088374;28;20048;-49
2021/01/24 23:33:29;;;;;;;9.60;4.13;;;-1.30;99.90;;;;;;5089949;28;20464;-50
2021/01/24 23:35:56;;;;;;;9.63;3.55;;;-1.30;99.90;;;;;;5080240;28;20685;-49
2021/01/24 23:38:22;;;;;;;10.23;4.55;;;-1.20;99.90;;;;;;5080802;28;20059;-49
2021/01/24 23:40:49;;;;;;;8.38;3.15;;;-1.20;99.90;;;;;;5080563;28;20413;-49
2021/01/24 23:43:16;;;;;;;6.88;2.38;;;-1.20;99.90;;;;;;5090535;28;20048;-49
2021/01/24 23:45:43;;;;;;;4.20;1.20;;;-1.20;99.90;;;;;;5086963;28;20172;-49
2021/01/24 23:48:10;;;;;;;3.55;1.85;;;-1.30;99.90;;;;;;5080364;28;20067;-49
2021/01/24 23:50:37;;;;;;;2.85;1.02;;;-1.40;99.90;;;;;;5081658;28;20036;-50
2021/01/24 23:53:03;;;;;;;3.92;1.55;;;-1.50;99.90;;;;;;5076104;28;20404;-51
2021/01/24 23:55:30;;;;;;;9.60;3.30;;;-1.60;99.90;;;;;;5085882;28;20036;-51
2021/01/24 23:57:56;;;;;;;11.38;3.90;;;-1.70;99.90;;;;;;5083887;28;20063;-49
